Time;durP1;ratioP1;P1;durP2;ratioP2;P2;SDS_P1;SDS_P2;PMS_P1;PMS_P2;Temp;Humidity;BMP_temperature;BMP_pressure;BME280_temperature;BME280_humidity;BME280_pressure;Samples;Min_cycle;Max_cycle;Signal;HPM_P1;HPM_P2
2022/10/27 00:01:16;;;;;;;19.95;6.32;;;;;;;;;;4969459;28;20727;-44
2022/10/27 00:03:41;;;;;;;26.35;6.95;;;;;;;;;;4969020;28;20058;-47
2022/10/27 00:06:07;;;;;;;25.13;6.07;;;;;;;;;;4967432;28;20042;-52
2022/10/27 00:08:33;;;;;;;23.92;6.13;;;;;;;;;;4966569;28;20062;-49
2022/10/27 00:11:01;;;;;;;19.10;5.90;;;;;;;;;;4969812;28;20139;-46
2022/10/27 00:13:27;;;;;;;15.40;5.70;;;;;;;;;;4967507;28;20037;-51
2022/10/27 00:16:00;;;;;;;19.65;5.80;;;;;;;;;;4965327;28;20043;-47
2022/10/27 00:18:26;;;;;;;25.80;6.35;;;;;;;;;;4964822;28;20042;-46
2022/10/27 00:21:01;;;;;;;19.95;6.10;;;;;;;;;;4968223;28;20030;-48
2022/10/27 00:23:26;;;;;;;22.95;6.90;;;;;;;;;;4969414;28;20051;-51
2022/10/27 00:25:53;;;;;;;33.00;6.35;;;;;;;;;;4968197;28;20046;-46
2022/10/27 00:28:19;;;;;;;20.83;6.22;;;;;;;;;;4968493;28;20054;-49
2022/10/27 00:30:44;;;;;;;16.90;5.60;;;;;;;;;;4968498;28;20035;-51
2022/10/27 00:33:09;;;;;;;20.55;6.30;;;;;;;;;;4967540;28;20050;-49
2022/10/27 00:35:35;;;;;;;25.13;5.93;;;;;;;;;;4969572;28;20022;-48
2022/10/27 00:38:01;;;;;;;13.52;5.57;;;;;;;;;;4967500;28;20403;-49
2022/10/27 00:40:26;;;;;;;18.05;5.90;;;;;;;;;;4969668;28;20070;-49
2022/10/27 00:42:51;;;;;;;22.35;6.03;;;;;;;;;;4966196;28;20042;-52
2022/10/27 00:45:17;;;;;;;21.10;6.65;;;;;;;;;;4968807;28;20043;-46
2022/10/27 00:47:42;;;;;;;20.42;5.82;;;;;;;;;;4967488;28;20073;-52
2022/10/27 00:50:13;;;;;;;20.88;5.93;;;;;;;;;;4967132;28;20027;-52
2022/10/27 00:52:49;;;;;;;24.27;6.15;;;;;;;;;;4964542;28;20039;-48
2022/10/27 00:55:20;;;;;;;23.08;6.80;;;;;;;;;;4969173;28;20039;-48
2022/10/27 00:57:49;;;;;;;25.88;6.22;;;;;;;;;;4968503;28;20096;-47
2022/10/27 01:00:16;;;;;;;17.27;5.85;;;;;;;;;;4968703;28;20480;-51
2022/10/27 01:02:41;;;;;;;20.75;5.93;;;;;;;;;;4966896;28;20031;-50
2022/10/27 01:05:07;;;;;;;22.63;6.60;;;;;;;;;;4967952;28;20046;-51
2022/10/27 01:07:33;;;;;;;20.95;6.45;;;;;;;;;;4965397;28;20553;-49
2022/10/27 01:09:58;;;;;;;24.42;5.80;;;;;;;;;;4967461;28;20043;-51
2022/10/27 01:12:24;;;;;;;17.38;6.75;;;;;;;;;;4966484;28;20034;-46
2022/10/27 01:14:50;;;;;;;23.65;6.13;;;;;;;;;;4967931;28;20162;-45
2022/10/27 01:17:34;;;;;;;24.00;6.20;;;;;;;;;;4966919;28;20054;-44
2022/10/27 01:20:30;;;;;;;18.48;6.38;;;;;;;;;;4965517;28;20034;-46
2022/10/27 01:22:55;;;;;;;17.58;5.80;;;;;;;;;;4968191;28;20058;-43
2022/10/27 01:25:23;;;;;;;17.90;5.45;;;;;;;;;;4969096;28;20652;-43
2022/10/27 01:28:28;;;;;;;21.58;5.57;;;;;;;;;;4963678;28;20462;-44
2022/10/27 01:31:00;;;;;;;18.55;6.10;;;;;;;;;;4966426;28;20050;-46
2022/10/27 01:33:41;;;;;;;21.70;6.18;;;;;;;;;;4968235;28;20066;-44
2022/10/27 01:36:25;;;;;;;15.80;6.33;;;;;;;;;;4968417;28;20038;-48
2022/10/27 01:39:01;;;;;;;30.00;7.60;;;;;;;;;;4965957;28;20066;-44
2022/10/27 01:41:32;;;;;;;12.60;5.60;;;;;;;;;;4966424;28;20042;-47
2022/10/27 01:44:07;;;;;;;18.73;5.45;;;;;;;;;;4970697;28;20037;-43
2022/10/27 01:46:33;;;;;;;31.23;6.32;;;;;;;;;;4971046;28;20078;-46
2022/10/27 01:48:59;;;;;;;25.45;6.10;;;;;;;;;;4971807;28;20039;-47
2022/10/27 01:51:25;;;;;;;14.10;5.40;;;;;;;;;;4971027;28;20042;-41
2022/10/27 01:53:51;;;;;;;18.05;6.20;;;;;;;;;;4969639;28;20073;-44
2022/10/27 01:56:41;;;;;;;18.60;6.20;;;;;;;;;;4970266;28;20027;-43
2022/10/27 01:59:10;;;;;;;19.45;6.25;;;;;;;;;;4971776;28;20054;-43
2022/10/27 02:01:41;;;;;;;14.30;6.22;;;;;;;;;;4971188;28;20084;-43
2022/10/27 02:04:09;;;;;;;19.80;6.07;;;;;;;;;;4971968;28;20039;-44
2022/10/27 02:06:47;;;;;;;19.10;5.90;;;;;;;;;;4969440;28;20063;-44
2022/10/27 02:09:20;;;;;;;15.95;5.50;;;;;;;;;;4971193;28;20069;-45
2022/10/27 02:11:50;;;;;;;18.33;6.15;;;;;;;;;;4971245;28;20045;-43
2022/10/27 02:14:16;;;;;;;19.55;5.82;;;;;;;;;;4971867;28;20113;-44
2022/10/27 02:16:45;;;;;;;20.13;5.60;;;;;;;;;;4968355;28;20071;-44
2022/10/27 02:19:34;;;;;;;20.42;5.72;;;;;;;;;;4970936;28;20484;-43
2022/10/27 02:22:01;;;;;;;20.73;6.20;;;;;;;;;;4970271;28;20058;-45
2022/10/27 02:24:28;;;;;;;19.05;6.18;;;;;;;;;;4971287;28;20114;-43
2022/10/27 02:27:30;;;;;;;25.33;5.45;;;;;;;;;;4968746;28;20043;-44
2022/10/27 02:29:58;;;;;;;22.42;5.78;;;;;;;;;;4971245;28;20065;-44
2022/10/27 02:32:26;;;;;;;22.35;6.15;;;;;;;;;;4968759;28;20039;-44
2022/10/27 02:34:52;;;;;;;21.98;6.95;;;;;;;;;;4971829;28;20031;-44
2022/10/27 02:37:39;;;;;;;17.90;6.15;;;;;;;;;;4969538;28;20126;-44
2022/10/27 02:40:05;;;;;;;14.50;5.65;;;;;;;;;;4971855;28;20488;-45
2022/10/27 02:42:31;;;;;;;23.75;5.40;;;;;;;;;;4970870;28;20121;-43
2022/10/27 02:44:56;;;;;;;16.92;5.82;;;;;;;;;;4971711;28;20138;-44
2022/10/27 02:47:22;;;;;;;30.83;6.22;;;;;;;;;;4968002;28;20522;-44
2022/10/27 02:49:47;;;;;;;24.15;6.63;;;;;;;;;;4969708;28;20038;-45
2022/10/27 02:52:12;;;;;;;19.27;6.18;;;;;;;;;;4969782;28;20046;-43
2022/10/27 02:54:39;;;;;;;25.30;6.50;;;;;;;;;;4969645;28;20478;-43
2022/10/27 02:57:04;;;;;;;22.52;6.40;;;;;;;;;;4970475;28;20051;-43
2022/10/27 02:59:29;;;;;;;19.83;6.25;;;;;;;;;;4971226;28;20089;-44
2022/10/27 03:01:55;;;;;;;21.83;6.60;;;;;;;;;;4970753;28;20126;-43
2022/10/27 03:04:20;;;;;;;22.67;6.68;;;;;;;;;;4970814;28;20073;-43
2022/10/27 03:06:45;;;;;;;19.65;6.18;;;;;;;;;;4968503;28;20039;-44
2022/10/27 03:09:11;;;;;;;16.73;6.30;;;;;;;;;;4970420;28;20046;-43
2022/10/27 03:11:36;;;;;;;17.63;5.72;;;;;;;;;;4969788;28;20022;-44
2022/10/27 03:14:02;;;;;;;19.63;6.10;;;;;;;;;;4969650;28;20387;-43
2022/10/27 03:16:27;;;;;;;22.60;5.30;;;;;;;;;;4967885;28;20050;-43
2022/10/27 03:18:52;;;;;;;22.65;6.65;;;;;;;;;;4969315;28;20051;-43
2022/10/27 03:21:18;;;;;;;16.85;5.70;;;;;;;;;;4969053;28;20034;-45
2022/10/27 03:23:43;;;;;;;20.15;6.22;;;;;;;;;;4968666;28;20054;-47
2022/10/27 03:26:09;;;;;;;20.08;6.38;;;;;;;;;;4967261;28;20039;-44
2022/10/27 03:28:35;;;;;;;20.02;5.47;;;;;;;;;;4969585;28;20495;-44
2022/10/27 03:31:02;;;;;;;19.10;5.95;;;;;;;;;;4969359;28;20042;-44
2022/10/27 03:33:27;;;;;;;20.15;5.68;;;;;;;;;;4969660;28;20105;-43
2022/10/27 03:35:53;;;;;;;19.70;5.95;;;;;;;;;;4965002;28;20439;-46
2022/10/27 03:38:18;;;;;;;17.00;5.72;;;;;;;;;;4969007;28;20127;-47
2022/10/27 03:40:43;;;;;;;18.98;6.20;;;;;;;;;;4970478;28;20031;-44
2022/10/27 03:43:10;;;;;;;22.30;6.20;;;;;;;;;;4967823;28;20047;-44
2022/10/27 03:45:35;;;;;;;23.10;6.53;;;;;;;;;;4967685;28;20188;-43
2022/10/27 03:48:05;;;;;;;20.77;6.25;;;;;;;;;;4968729;28;20125;-43
2022/10/27 03:50:31;;;;;;;24.15;6.55;;;;;;;;;;4964292;28;20550;-43
2022/10/27 03:52:57;;;;;;;30.45;6.72;;;;;;;;;;4968040;28;20400;-45
2022/10/27 03:55:23;;;;;;;17.20;5.88;;;;;;;;;;4970256;28;20042;-43
2022/10/27 03:57:48;;;;;;;21.27;6.28;;;;;;;;;;4968941;28;20081;-43
2022/10/27 04:00:14;;;;;;;27.35;6.63;;;;;;;;;;4968322;28;20027;-43
2022/10/27 04:02:40;;;;;;;20.88;6.43;;;;;;;;;;4968417;28;20054;-44
2022/10/27 04:05:07;;;;;;;22.13;5.78;;;;;;;;;;4966203;28;20027;-44
2022/10/27 04:07:32;;;;;;;16.55;7.13;;;;;;;;;;4966371;28;20065;-45
2022/10/27 04:09:57;;;;;;;15.43;6.20;;;;;;;;;;4968099;28;20041;-43
2022/10/27 04:12:23;;;;;;;21.77;6.60;;;;;;;;;;4969619;28;20043;-44
2022/10/27 04:14:49;;;;;;;22.75;6.13;;;;;;;;;;4968717;28;20027;-43
2022/10/27 04:17:17;;;;;;;22.08;6.88;;;;;;;;;;4966259;28;20404;-45
2022/10/27 04:19:43;;;;;;;21.75;6.07;;;;;;;;;;4967885;28;20439;-45
2022/10/27 04:22:08;;;;;;;29.48;6.63;;;;;;;;;;4964392;28;20043;-45
2022/10/27 04:24:34;;;;;;;20.20;6.57;;;;;;;;;;4968409;28;20031;-44
2022/10/27 04:26:59;;;;;;;23.60;7.03;;;;;;;;;;4947267;28;20045;-44
2022/10/27 04:29:25;;;;;;;23.23;7.03;;;;;;;;;;4968144;28;20023;-48
2022/10/27 04:31:50;;;;;;;19.63;7.00;;;;;;;;;;4964654;28;20043;-44
2022/10/27 04:34:16;;;;;;;19.77;6.55;;;;;;;;;;4968673;28;20026;-44
2022/10/27 04:36:41;;;;;;;25.63;6.38;;;;;;;;;;4967423;28;20399;-43
2022/10/27 04:39:06;;;;;;;24.00;6.63;;;;;;;;;;4968610;28;20515;-44
2022/10/27 04:41:32;;;;;;;17.15;6.53;;;;;;;;;;4963329;28;20035;-44
2022/10/27 04:43:57;;;;;;;16.85;6.47;;;;;;;;;;4967980;28;20472;-44
2022/10/27 04:46:23;;;;;;;13.50;5.85;;;;;;;;;;4965396;28;20077;-44
2022/10/27 04:48:48;;;;;;;17.67;6.32;;;;;;;;;;4969470;28;20046;-44
2022/10/27 04:51:14;;;;;;;31.02;7.25;;;;;;;;;;4967895;28;20041;-44
2022/10/27 04:53:39;;;;;;;26.17;6.70;;;;;;;;;;4965245;28;20042;-45
2022/10/27 04:56:05;;;;;;;23.73;7.25;;;;;;;;;;4968235;28;20621;-45
2022/10/27 04:58:30;;;;;;;27.30;6.68;;;;;;;;;;4968973;28;20042;-46
2022/10/27 05:00:55;;;;;;;25.13;6.63;;;;;;;;;;4969036;28;20089;-48
2022/10/27 05:03:21;;;;;;;23.20;6.95;;;;;;;;;;4969151;28;20411;-47
2022/10/27 05:05:46;;;;;;;15.38;5.93;;;;;;;;;;4968013;28;20034;-48
2022/10/27 05:08:12;;;;;;;16.98;6.55;;;;;;;;;;4964212;28;20038;-44
2022/10/27 05:10:37;;;;;;;18.38;7.18;;;;;;;;;;4969290;28;20027;-44
2022/10/27 05:13:03;;;;;;;23.35;6.53;;;;;;;;;;4967538;28;20043;-45
2022/10/27 05:15:28;;;;;;;20.10;7.03;;;;;;;;;;4969001;28;20031;-43
2022/10/27 05:17:54;;;;;;;25.20;7.57;;;;;;;;;;4967867;28;20451;-44
2022/10/27 05:20:21;;;;;;;16.65;6.50;;;;;;;;;;4969082;28;20022;-44
2022/10/27 05:22:47;;;;;;;29.00;6.82;;;;;;;;;;4967693;28;20126;-44
2022/10/27 05:25:12;;;;;;;22.92;6.93;;;;;;;;;;4968302;28;20644;-44
2022/10/27 05:27:38;;;;;;;27.27;7.50;;;;;;;;;;4967177;28;20035;-43
2022/10/27 05:30:04;;;;;;;33.38;7.82;;;;;;;;;;4967931;28;20031;-43
2022/10/27 05:32:30;;;;;;;30.98;7.20;;;;;;;;;;4967525;28;20129;-46
2022/10/27 05:34:55;;;;;;;20.10;6.10;;;;;;;;;;4968512;28;20097;-44
2022/10/27 05:37:21;;;;;;;28.33;6.93;;;;;;;;;;4966249;28;20043;-43
2022/10/27 05:39:46;;;;;;;29.88;6.60;;;;;;;;;;4967830;28;20029;-43
2022/10/27 05:42:11;;;;;;;26.60;6.88;;;;;;;;;;4966301;28;20038;-44
2022/10/27 05:44:37;;;;;;;18.65;6.72;;;;;;;;;;4966280;28;20030;-43
2022/10/27 05:47:02;;;;;;;22.15;6.65;;;;;;;;;;4967384;28;20476;-43
2022/10/27 05:49:27;;;;;;;27.73;7.00;;;;;;;;;;4968506;28;20027;-43
2022/10/27 05:51:53;;;;;;;22.20;6.00;;;;;;;;;;4964816;28;20101;-49
2022/10/27 05:54:18;;;;;;;29.65;6.93;;;;;;;;;;4968466;28;20057;-46
2022/10/27 05:56:44;;;;;;;16.98;6.35;;;;;;;;;;4967859;28;20039;-47
2022/10/27 05:59:11;;;;;;;24.00;6.57;;;;;;;;;;4967695;28;20062;-43
2022/10/27 06:01:37;;;;;;;27.77;7.10;;;;;;;;;;4967224;28;20101;-44
2022/10/27 06:04:02;;;;;;;24.80;8.45;;;;;;;;;;4967615;28;20098;-48
2022/10/27 06:06:28;;;;;;;23.50;6.40;;;;;;;;;;4966504;28;20039;-48
2022/10/27 06:08:53;;;;;;;13.93;5.95;;;;;;;;;;4967822;28;20109;-46
2022/10/27 06:11:19;;;;;;;19.45;6.95;;;;;;;;;;4966635;28;20044;-43
2022/10/27 06:13:47;;;;;;;19.23;6.05;;;;;;;;;;4967905;28;20050;-46
2022/10/27 06:16:12;;;;;;;25.33;7.57;;;;;;;;;;4967955;28;20395;-43
2022/10/27 06:18:38;;;;;;;17.95;6.45;;;;;;;;;;4967718;28;20035;-43
2022/10/27 06:21:03;;;;;;;19.85;6.38;;;;;;;;;;4964563;28;20027;-45
2022/10/27 06:23:28;;;;;;;23.20;6.40;;;;;;;;;;4966742;28;20059;-43
2022/10/27 06:25:55;;;;;;;26.80;6.78;;;;;;;;;;4966105;28;20113;-43
2022/10/27 06:28:21;;;;;;;20.75;6.22;;;;;;;;;;4967329;28;20058;-45
2022/10/27 06:30:46;;;;;;;28.33;6.43;;;;;;;;;;4969658;28;20035;-44
2022/10/27 06:33:12;;;;;;;19.70;6.80;;;;;;;;;;4969840;28;20608;-44
2022/10/27 06:35:37;;;;;;;20.45;6.80;;;;;;;;;;4970276;28;20034;-44
2022/10/27 06:38:02;;;;;;;18.67;6.25;;;;;;;;;;4971249;28;20053;-44
2022/10/27 06:40:28;;;;;;;19.38;6.65;;;;;;;;;;4971081;28;20062;-46
2022/10/27 06:42:53;;;;;;;22.92;7.20;;;;;;;;;;4969538;28;20046;-43
2022/10/27 06:45:19;;;;;;;29.20;6.70;;;;;;;;;;4969969;28;20483;-46
2022/10/27 06:47:44;;;;;;;17.88;6.35;;;;;;;;;;4970699;28;21088;-43
2022/10/27 06:50:11;;;;;;;20.70;6.97;;;;;;;;;;4969411;28;20047;-43
2022/10/27 06:52:38;;;;;;;18.13;5.68;;;;;;;;;;4969609;28;20101;-44
2022/10/27 06:55:03;;;;;;;24.65;6.95;;;;;;;;;;4971250;28;20035;-46
2022/10/27 06:57:29;;;;;;;20.23;6.65;;;;;;;;;;4968698;28;20407;-46
2022/10/27 06:59:55;;;;;;;19.98;6.45;;;;;;;;;;4970432;28;20033;-46
2022/10/27 07:02:21;;;;;;;20.92;6.80;;;;;;;;;;4969437;28;20043;-43
2022/10/27 07:04:47;;;;;;;20.88;6.38;;;;;;;;;;4969766;28;20031;-49
2022/10/27 07:07:12;;;;;;;24.33;6.43;;;;;;;;;;4967753;28;20051;-44
2022/10/27 07:09:39;;;;;;;16.30;5.75;;;;;;;;;;4971359;28;20468;-46
2022/10/27 07:12:04;;;;;;;24.40;6.57;;;;;;;;;;4969136;28;20039;-43
2022/10/27 07:14:30;;;;;;;22.05;6.95;;;;;;;;;;4970431;28;20031;-45
2022/10/27 07:16:57;;;;;;;15.38;6.10;;;;;;;;;;4969654;28;20057;-47
2022/10/27 07:19:23;;;;;;;24.95;6.88;;;;;;;;;;4969394;28;20022;-43
2022/10/27 07:21:48;;;;;;;14.75;6.05;;;;;;;;;;4968324;28;20039;-43
2022/10/27 07:24:14;;;;;;;22.98;6.38;;;;;;;;;;4970816;28;20026;-43
2022/10/27 07:26:39;;;;;;;19.08;6.57;;;;;;;;;;4969165;28;20047;-49
2022/10/27 07:29:04;;;;;;;18.85;6.30;;;;;;;;;;4969896;28;20476;-44
2022/10/27 07:31:30;;;;;;;14.68;5.90;;;;;;;;;;4969974;28;20027;-45
2022/10/27 07:33:55;;;;;;;19.02;6.85;;;;;;;;;;4970405;28;20027;-45
2022/10/27 07:36:20;;;;;;;19.15;6.40;;;;;;;;;;4966990;28;20036;-45
2022/10/27 07:38:46;;;;;;;18.80;5.90;;;;;;;;;;4969001;28;20034;-47
2022/10/27 07:41:11;;;;;;;17.25;6.50;;;;;;;;;;4968312;28;20025;-50
2022/10/27 07:43:38;;;;;;;16.15;5.60;;;;;;;;;;4968502;28;20090;-44
2022/10/27 07:46:04;;;;;;;12.15;5.38;;;;;;;;;;4966847;28;20639;-49
2022/10/27 07:48:29;;;;;;;14.23;5.93;;;;;;;;;;4969278;28;20039;-43
2022/10/27 07:50:54;;;;;;;13.88;6.28;;;;;;;;;;4968243;28;20049;-47
2022/10/27 07:53:20;;;;;;;15.52;6.10;;;;;;;;;;4969848;28;20050;-44
2022/10/27 07:55:45;;;;;;;11.73;5.35;;;;;;;;;;4970082;28;20130;-43
2022/10/27 07:58:15;;;;;;;22.13;5.50;;;;;;;;;;4968114;28;20038;-43
2022/10/27 08:00:43;;;;;;;14.35;5.72;;;;;;;;;;4971419;28;20468;-50
2022/10/27 08:03:17;;;;;;;13.63;6.20;;;;;;;;;;4968399;28;20043;-44
2022/10/27 08:05:43;;;;;;;16.75;5.43;;;;;;;;;;4968540;28;20066;-44
2022/10/27 08:08:08;;;;;;;13.23;4.85;;;;;;;;;;4969900;28;20042;-43
2022/10/27 08:10:37;;;;;;;10.60;4.97;;;;;;;;;;4969428;28;20399;-47
2022/10/27 08:13:03;;;;;;;9.85;4.68;;;;;;;;;;4965640;28;20043;-44
2022/10/27 08:15:29;;;;;;;16.75;5.40;;;;;;;;;;4968403;28;20034;-49
2022/10/27 08:17:58;;;;;;;13.20;5.53;;;;;;;;;;4970049;28;20039;-44
2022/10/27 08:20:24;;;;;;;14.30;5.32;;;;;;;;;;4969185;28;20113;-49
2022/10/27 08:22:57;;;;;;;8.38;4.88;;;;;;;;;;4968448;28;20050;-44
2022/10/27 08:25:23;;;;;;;20.63;5.47;;;;;;;;;;4968486;28;20058;-45
2022/10/27 08:27:49;;;;;;;21.20;5.38;;;;;;;;;;4969309;28;20054;-46
2022/10/27 08:30:14;;;;;;;10.77;5.20;;;;;;;;;;4965754;28;20070;-44
2022/10/27 08:32:39;;;;;;;15.60;5.47;;;;;;;;;;4966687;28;20961;-47
2022/10/27 08:35:05;;;;;;;10.02;4.95;;;;;;;;;;4968615;28;20066;-46
2022/10/27 08:37:30;;;;;;;17.25;5.57;;;;;;;;;;4968440;28;20415;-51
2022/10/27 08:39:56;;;;;;;17.35;5.05;;;;;;;;;;4967765;28;20026;-50
2022/10/27 08:42:44;;;;;;;23.67;6.38;;;;;;;;;;4966665;28;20038;-46
2022/10/27 08:45:18;;;;;;;13.15;5.97;;;;;;;;;;4968775;28;20051;-46
2022/10/27 08:47:45;;;;;;;17.52;5.65;;;;;;;;;;4966189;28;20089;-47
2022/10/27 08:50:21;;;;;;;22.63;5.30;;;;;;;;;;4968370;28;20050;-46
2022/10/27 08:53:01;;;;;;;18.70;5.57;;;;;;;;;;4967011;28;20035;-48
2022/10/27 08:55:34;;;;;;;16.50;5.70;;;;;;;;;;4966960;28;20023;-45
2022/10/27 08:58:21;;;;;;;17.42;5.70;;;;;;;;;;4969323;28;20039;-51
2022/10/27 09:00:52;;;;;;;15.00;5.07;;;;;;;;;;4969818;28;20061;-44
2022/10/27 09:03:38;;;;;;;17.95;5.55;;;;;;;;;;4967699;28;20550;-46
2022/10/27 09:06:09;;;;;;;15.43;6.07;;;;;;;;;;4966064;28;20043;-52
2022/10/27 09:09:05;;;;;;;17.05;5.60;;;;;;;;;;4967191;28;20054;-53
2022/10/27 09:11:37;;;;;;;15.30;6.40;;;;;;;;;;4967626;28;20026;-45
2022/10/27 09:14:25;;;;;;;20.77;5.72;;;;;;;;;;4969306;28;20026;-52
2022/10/27 09:16:56;;;;;;;13.82;4.97;;;;;;;;;;4967413;28;20038;-48
2022/10/27 09:19:37;;;;;;;16.20;4.93;;;;;;;;;;4967594;28;20472;-47
2022/10/27 09:22:05;;;;;;;25.27;5.85;;;;;;;;;;4966721;28;20201;-53
2022/10/27 09:24:36;;;;;;;13.30;5.30;;;;;;;;;;4966784;28;20476;-50
2022/10/27 09:27:02;;;;;;;16.88;5.35;;;;;;;;;;4966009;28;20047;-52
2022/10/27 09:29:29;;;;;;;13.63;5.32;;;;;;;;;;4968956;28;20651;-51
2022/10/27 09:32:10;;;;;;;15.77;4.75;;;;;;;;;;4965956;28;20058;-48
2022/10/27 09:35:00;;;;;;;18.08;5.75;;;;;;;;;;4967294;28;20027;-50
2022/10/27 09:37:28;;;;;;;19.90;5.50;;;;;;;;;;4967717;28;20539;-46
2022/10/27 09:39:53;;;;;;;24.10;5.93;;;;;;;;;;4968098;28;20042;-47
2022/10/27 09:42:20;;;;;;;17.52;5.88;;;;;;;;;;4966517;28;20065;-50
2022/10/27 09:44:54;;;;;;;23.15;5.72;;;;;;;;;;4968025;28;20496;-47
2022/10/27 09:47:25;;;;;;;24.27;5.75;;;;;;;;;;4964878;28;20051;-47
2022/10/27 09:49:52;;;;;;;20.17;6.47;;;;;;;;;;4967915;28;20046;-49
2022/10/27 09:52:33;;;;;;;17.80;5.60;;;;;;;;;;4967766;28;20043;-48
2022/10/27 09:54:58;;;;;;;17.88;5.30;;;;;;;;;;4966082;28;20042;-52
2022/10/27 09:57:27;;;;;;;17.83;5.07;;;;;;;;;;4968732;28;20507;-44
2022/10/27 09:59:59;;;;;;;21.67;5.40;;;;;;;;;;4968112;28;20035;-48
2022/10/27 10:02:31;;;;;;;17.42;4.88;;;;;;;;;;4968777;28;20061;-49
2022/10/27 10:04:59;;;;;;;23.42;5.72;;;;;;;;;;4967873;28;20031;-48
2022/10/27 10:07:36;;;;;;;23.25;5.63;;;;;;;;;;4969931;28;20051;-50
2022/10/27 10:10:03;;;;;;;19.27;5.22;;;;;;;;;;4968489;28;20065;-47
2022/10/27 10:12:29;;;;;;;22.88;5.35;;;;;;;;;;4968192;28;20070;-47
2022/10/27 10:15:09;;;;;;;26.63;5.85;;;;;;;;;;4972465;28;20408;-48
2022/10/27 10:17:37;;;;;;;26.98;5.93;;;;;;;;;;4970452;28;20043;-48
2022/10/27 10:20:05;;;;;;;31.15;6.35;;;;;;;;;;4972682;28;20081;-49
2022/10/27 10:22:33;;;;;;;18.92;5.07;;;;;;;;;;4971959;28;20122;-49
2022/10/27 10:25:13;;;;;;;26.95;6.13;;;;;;;;;;4969867;28;20046;-48
2022/10/27 10:27:39;;;;;;;21.02;5.15;;;;;;;;;;4968195;28;20050;-49
2022/10/27 10:30:05;;;;;;;19.15;5.40;;;;;;;;;;4970602;28;20097;-53
2022/10/27 10:32:35;;;;;;;32.47;6.22;;;;;;;;;;4970497;28;20066;-47
2022/10/27 10:35:01;;;;;;;27.02;5.47;;;;;;;;;;4971306;28;20130;-52
2022/10/27 10:37:30;;;;;;;26.75;5.80;;;;;;;;;;4971364;28;20054;-52
2022/10/27 10:40:28;;;;;;;28.13;5.28;;;;;;;;;;4967847;28;20081;-49
2022/10/27 10:43:13;;;;;;;25.15;5.40;;;;;;;;;;4929130;28;20052;-51
2022/10/27 10:45:40;;;;;;;25.48;5.78;;;;;;;;;;4929194;29;20043;-49
2022/10/27 10:48:23;;;;;;;19.33;5.43;;;;;;;;;;4930156;29;20059;-50
2022/10/27 10:50:49;;;;;;;19.13;5.32;;;;;;;;;;4928763;29;20031;-48
2022/10/27 10:53:30;;;;;;;24.13;5.82;;;;;;;;;;4930105;29;20043;-51
2022/10/27 10:56:00;;;;;;;26.77;4.90;;;;;;;;;;4927957;29;20036;-49
2022/10/27 10:58:28;;;;;;;22.23;5.55;;;;;;;;;;4926932;29;20692;-51
2022/10/27 11:00:57;;;;;;;24.65;6.40;;;;;;;;;;4928478;29;20074;-52
2022/10/27 11:03:25;;;;;;;21.05;6.28;;;;;;;;;;4928959;29;20043;-49
2022/10/27 11:05:57;;;;;;;24.42;5.90;;;;;;;;;;4913585;29;20036;-44
2022/10/27 11:08:28;;;;;;;23.35;6.57;;;;;;;;;;4926727;28;20044;-45
2022/10/27 11:10:55;;;;;;;15.27;6.05;;;;;;;;;;4930198;29;20039;-45
2022/10/27 11:13:47;;;;;;;19.17;5.43;;;;;;;;;;4929200;29;20071;-44
2022/10/27 11:16:13;;;;;;;29.90;5.97;;;;;;;;;;4922003;29;20043;-44
2022/10/27 11:18:50;;;;;;;25.92;7.05;;;;;;;;;;4951987;28;20070;-46
2022/10/27 11:21:27;;;;;;;26.50;6.95;;;;;;;;;;4969792;28;20027;-51
2022/10/27 11:23:59;;;;;;;19.35;5.43;;;;;;;;;;4966367;28;20066;-47
2022/10/27 11:26:39;;;;;;;14.85;5.60;;;;;;;;;;4965769;28;20031;-49
2022/10/27 11:29:32;;;;;;;23.13;6.75;;;;;;;;;;4968672;28;20109;-47
2022/10/27 11:32:33;;;;;;;29.25;6.55;;;;;;;;;;4965204;28;20104;-44
2022/10/27 11:35:15;;;;;;;21.65;6.38;;;;;;;;;;4967077;28;20041;-48
2022/10/27 11:37:46;;;;;;;33.70;6.82;;;;;;;;;;4968261;28;20058;-47
2022/10/27 11:40:25;;;;;;;27.63;6.40;;;;;;;;;;4968974;28;20069;-44
2022/10/27 11:42:56;;;;;;;23.40;6.03;;;;;;;;;;4967635;28;20112;-44
2022/10/27 11:45:43;;;;;;;30.10;6.20;;;;;;;;;;4964333;28;20046;-46
2022/10/27 11:48:16;;;;;;;21.58;6.45;;;;;;;;;;4969758;28;20070;-45
2022/10/27 11:50:49;;;;;;;21.83;5.05;;;;;;;;;;4969225;28;20029;-45
2022/10/27 11:53:16;;;;;;;14.20;4.85;;;;;;;;;;4969040;28;20122;-46
2022/10/27 11:56:02;;;;;;;20.00;5.45;;;;;;;;;;4966820;28;20031;-44
2022/10/27 11:59:03;;;;;;;32.42;6.75;;;;;;;;;;4968736;28;20077;-48
2022/10/27 12:01:51;;;;;;;26.05;6.00;;;;;;;;;;4967276;28;20027;-44
2022/10/27 12:04:53;;;;;;;16.42;5.28;;;;;;;;;;4967634;28;20035;-46
2022/10/27 12:07:43;;;;;;;22.58;5.43;;;;;;;;;;4966394;28;20085;-47
2022/10/27 12:10:26;;;;;;;33.25;6.13;;;;;;;;;;4970090;28;20450;-45
2022/10/27 12:13:02;;;;;;;18.20;5.50;;;;;;;;;;4968380;28;20030;-43
2022/10/27 12:15:30;;;;;;;14.10;5.07;;;;;;;;;;4970092;28;20043;-46
2022/10/27 12:17:55;;;;;;;19.77;5.20;;;;;;;;;;4969604;28;20122;-45
2022/10/27 12:20:34;;;;;;;20.35;5.15;;;;;;;;;;4969045;28;20130;-44
2022/10/27 12:23:24;;;;;;;27.73;5.93;;;;;;;;;;4980043;28;20113;-47
2022/10/27 12:26:08;;;;;;;28.38;6.05;;;;;;;;;;4963028;28;20038;-49
2022/10/27 12:28:35;;;;;;;22.48;5.43;;;;;;;;;;4967767;28;20054;-48
2022/10/27 12:31:05;;;;;;;24.67;5.38;;;;;;;;;;4966443;28;20019;-44
2022/10/27 12:33:37;;;;;;;20.60;5.53;;;;;;;;;;4968070;28;20035;-46
2022/10/27 12:36:15;;;;;;;20.52;5.35;;;;;;;;;;4967482;28;20025;-44
2022/10/27 12:38:47;;;;;;;26.15;5.18;;;;;;;;;;4966131;28;20051;-44
2022/10/27 12:41:27;;;;;;;23.85;5.00;;;;;;;;;;4966657;28;20058;-44
2022/10/27 12:44:13;;;;;;;24.25;5.60;;;;;;;;;;4968174;28;20054;-44
2022/10/27 12:46:54;;;;;;;27.08;5.82;;;;;;;;;;4966413;28;20393;-46
2022/10/27 12:49:48;;;;;;;30.67;5.55;;;;;;;;;;4966075;28;20498;-44
2022/10/27 12:52:20;;;;;;;16.85;5.03;;;;;;;;;;4967220;28;20141;-45
2022/10/27 12:54:55;;;;;;;14.95;4.97;;;;;;;;;;4967730;28;20046;-44
2022/10/27 12:57:42;;;;;;;17.92;4.97;;;;;;;;;;4967623;28;20073;-45
2022/10/27 13:00:16;;;;;;;17.60;4.82;;;;;;;;;;4968827;28;20046;-47
2022/10/27 13:02:53;;;;;;;32.05;5.55;;;;;;;;;;4968285;28;20193;-44
2022/10/27 13:05:36;;;;;;;18.80;4.85;;;;;;;;;;4969087;28;20058;-45
2022/10/27 13:08:28;;;;;;;33.38;5.65;;;;;;;;;;4965617;28;20043;-44
2022/10/27 13:11:28;;;;;;;22.33;5.18;;;;;;;;;;4966046;28;20038;-44
2022/10/27 13:13:54;;;;;;;17.73;5.22;;;;;;;;;;4964441;28;20094;-46
2022/10/27 13:16:57;;;;;;;17.38;5.45;;;;;;;;;;4968113;28;20031;-44
2022/10/27 13:19:52;;;;;;;20.95;5.63;;;;;;;;;;4907053;29;20044;-44
2022/10/27 13:22:40;;;;;;;27.80;6.10;;;;;;;;;;4904893;29;20044;-44
2022/10/27 13:25:29;;;;;;;20.15;5.50;;;;;;;;;;4904261;29;20028;-45
2022/10/27 13:28:06;;;;;;;20.70;5.88;;;;;;;;;;4905481;29;20059;-44
2022/10/27 13:30:35;;;;;;;22.10;5.63;;;;;;;;;;4902935;29;20042;-47
2022/10/27 13:33:01;;;;;;;18.60;5.50;;;;;;;;;;4904872;29;20040;-44
2022/10/27 13:35:35;;;;;;;22.08;6.00;;;;;;;;;;4904253;29;20493;-44
2022/10/27 13:38:21;;;;;;;24.38;5.60;;;;;;;;;;4906958;29;20040;-46
2022/10/27 13:40:46;;;;;;;20.33;5.72;;;;;;;;;;4911483;29;20056;-44
2022/10/27 13:43:20;;;;;;;17.25;5.90;;;;;;;;;;4917129;29;20044;-44
2022/10/27 13:45:53;;;;;;;17.60;5.95;;;;;;;;;;4912223;29;20060;-44
2022/10/27 13:48:18;;;;;;;22.38;5.47;;;;;;;;;;4912720;29;20051;-48
2022/10/27 13:50:53;;;;;;;22.23;5.10;;;;;;;;;;4910732;29;20040;-46
2022/10/27 13:53:19;;;;;;;24.88;5.13;;;;;;;;;;4911720;29;20042;-44
2022/10/27 13:55:45;;;;;;;24.88;5.75;;;;;;;;;;4958458;28;20126;-46
2022/10/27 13:58:10;;;;;;;23.10;5.65;;;;;;;;;;4970284;28;20040;-46
2022/10/27 14:00:51;;;;;;;23.15;5.18;;;;;;;;;;4972483;28;20086;-44
2022/10/27 14:03:47;;;;;;;22.73;5.97;;;;;;;;;;4971859;28;20447;-45
2022/10/27 14:06:13;;;;;;;23.85;6.10;;;;;;;;;;4971695;28;20046;-44
2022/10/27 14:08:44;;;;;;;25.25;5.90;;;;;;;;;;4970589;28;20061;-44
2022/10/27 14:11:14;;;;;;;31.65;6.25;;;;;;;;;;4971738;28;20038;-47
2022/10/27 14:13:51;;;;;;;33.85;6.28;;;;;;;;;;4970503;28;20046;-46
2022/10/27 14:16:35;;;;;;;19.38;6.38;;;;;;;;;;4972530;28;20028;-43
2022/10/27 14:19:17;;;;;;;30.77;6.28;;;;;;;;;;4970895;28;20519;-44
2022/10/27 14:21:46;;;;;;;21.27;6.35;;;;;;;;;;4970136;28;20448;-45
2022/10/27 14:24:19;;;;;;;30.65;6.70;;;;;;;;;;4970313;28;20050;-44
2022/10/27 14:26:45;;;;;;;28.30;5.97;;;;;;;;;;4970009;28;20062;-48
2022/10/27 14:29:22;;;;;;;22.52;6.90;;;;;;;;;;4971672;28;20398;-45
2022/10/27 14:31:48;;;;;;;22.05;5.68;;;;;;;;;;4969567;28;20035;-44
2022/10/27 14:34:23;;;;;;;33.22;6.47;;;;;;;;;;4971167;28;20394;-44
2022/10/27 14:36:51;;;;;;;26.35;6.75;;;;;;;;;;4967923;28;20043;-49
2022/10/27 14:39:19;;;;;;;24.05;6.60;;;;;;;;;;4970079;28;20125;-44
2022/10/27 14:41:47;;;;;;;23.90;6.10;;;;;;;;;;4971540;28;20098;-49
2022/10/27 14:44:20;;;;;;;25.30;5.88;;;;;;;;;;4971594;28;20066;-44
2022/10/27 14:46:48;;;;;;;15.30;5.60;;;;;;;;;;4970443;28;20436;-42
2022/10/27 14:49:25;;;;;;;26.10;5.65;;;;;;;;;;4969387;28;20030;-50
2022/10/27 14:51:51;;;;;;;27.25;6.68;;;;;;;;;;4965680;28;20038;-46